sensor_id;sensor_type;location;lat;lon;timestamp;P1;durP1;ratioP1;P2;durP2;ratioP2
80481;SDS011;69797;43.864;21.410;2023-05-10T00:02:07;3.55;;;1.83;;
80481;SDS011;69797;43.864;21.410;2023-05-10T00:04:34;4.65;;;1.98;;
80481;SDS011;69797;43.864;21.410;2023-05-10T00:07:01;3.60;;;2.13;;
80481;SDS011;69797;43.864;21.410;2023-05-10T00:09:27;3.05;;;1.90;;
80481;SDS011;69797;43.864;21.410;2023-05-10T00:11:54;6.93;;;2.75;;
80481;SDS011;69797;43.864;21.410;2023-05-10T00:14:21;4.40;;;2.60;;
80481;SDS011;69797;43.864;21.410;2023-05-10T00:16:47;3.42;;;2.35;;
80481;SDS011;69797;43.864;21.410;2023-05-10T00:19:14;4.07;;;2.50;;
80481;SDS011;69797;43.864;21.410;2023-05-10T00:21:43;4.80;;;2.22;;
80481;SDS011;69797;43.864;21.410;2023-05-10T00:24:10;5.32;;;2.72;;
80481;SDS011;69797;43.864;21.410;2023-05-10T00:26:39;3.38;;;1.83;;
80481;SDS011;69797;43.864;21.410;2023-05-10T00:29:06;4.38;;;2.10;;
80481;SDS011;69797;43.864;21.410;2023-05-10T00:31:35;3.93;;;2.53;;
80481;SDS011;69797;43.864;21.410;2023-05-10T00:34:01;4.13;;;2.60;;
80481;SDS011;69797;43.864;21.410;2023-05-10T00:36:28;4.45;;;2.55;;
80481;SDS011;69797;43.864;21.410;2023-05-10T00:38:55;4.00;;;2.30;;
80481;SDS011;69797;43.864;21.410;2023-05-10T00:41:22;4.88;;;2.67;;
80481;SDS011;69797;43.864;21.410;2023-05-10T00:43:49;5.30;;;2.60;;
80481;SDS011;69797;43.864;21.410;2023-05-10T00:46:15;3.85;;;2.58;;
80481;SDS011;69797;43.864;21.410;2023-05-10T00:48:44;4.10;;;2.58;;
80481;SDS011;69797;43.864;21.410;2023-05-10T00:51:13;3.92;;;2.47;;
80481;SDS011;69797;43.864;21.410;2023-05-10T00:53:40;4.68;;;2.40;;
80481;SDS011;69797;43.864;21.410;2023-05-10T00:56:07;5.27;;;2.70;;
80481;SDS011;69797;43.864;21.410;2023-05-10T00:58:34;4.28;;;2.65;;
80481;SDS011;69797;43.864;21.410;2023-05-10T01:01:01;6.45;;;2.72;;
80481;SDS011;69797;43.864;21.410;2023-05-10T01:03:28;2.88;;;1.83;;
80481;SDS011;69797;43.864;21.410;2023-05-10T01:05:55;6.82;;;3.17;;
80481;SDS011;69797;43.864;21.410;2023-05-10T01:08:22;3.60;;;2.70;;
80481;SDS011;69797;43.864;21.410;2023-05-10T01:10:49;5.80;;;3.20;;
80481;SDS011;69797;43.864;21.410;2023-05-10T01:13:23;5.18;;;2.67;;
80481;SDS011;69797;43.864;21.410;2023-05-10T01:16:04;4.57;;;2.58;;
80481;SDS011;69797;43.864;21.410;2023-05-10T01:18:33;5.07;;;3.10;;
80481;SDS011;69797;43.864;21.410;2023-05-10T01:29:39;8.48;;;3.35;;
80481;SDS011;69797;43.864;21.410;2023-05-10T01:35:39;6.37;;;3.73;;
80481;SDS011;69797;43.864;21.410;2023-05-10T01:38:14;3.47;;;2.17;;
80481;SDS011;69797;43.864;21.410;2023-05-10T01:43:30;4.70;;;3.13;;
80481;SDS011;69797;43.864;21.410;2023-05-10T01:46:07;6.22;;;4.00;;
80481;SDS011;69797;43.864;21.410;2023-05-10T01:48:47;5.13;;;3.30;;
80481;SDS011;69797;43.864;21.410;2023-05-10T01:51:19;6.53;;;3.53;;
80481;SDS011;69797;43.864;21.410;2023-05-10T01:53:50;5.95;;;3.58;;
80481;SDS011;69797;43.864;21.410;2023-05-10T01:56:20;6.75;;;3.55;;
80481;SDS011;69797;43.864;21.410;2023-05-10T01:58:52;6.15;;;4.10;;
80481;SDS011;69797;43.864;21.410;2023-05-10T02:01:20;5.33;;;3.30;;
80481;SDS011;69797;43.864;21.410;2023-05-10T02:03:49;7.50;;;4.10;;
80481;SDS011;69797;43.864;21.410;2023-05-10T02:06:18;6.20;;;3.42;;
80481;SDS011;69797;43.864;21.410;2023-05-10T02:08:46;7.15;;;3.35;;
80481;SDS011;69797;43.864;21.410;2023-05-10T02:11:18;5.55;;;3.17;;
80481;SDS011;69797;43.864;21.410;2023-05-10T02:13:49;7.07;;;4.33;;
80481;SDS011;69797;43.864;21.410;2023-05-10T02:16:18;7.53;;;3.78;;
80481;SDS011;69797;43.864;21.410;2023-05-10T02:18:53;9.00;;;3.90;;
80481;SDS011;69797;43.864;21.410;2023-05-10T02:21:23;4.68;;;3.45;;
80481;SDS011;69797;43.864;21.410;2023-05-10T02:23:51;6.25;;;4.07;;
80481;SDS011;69797;43.864;21.410;2023-05-10T02:26:20;5.17;;;3.40;;
80481;SDS011;69797;43.864;21.410;2023-05-10T02:28:49;5.72;;;3.85;;
80481;SDS011;69797;43.864;21.410;2023-05-10T02:31:17;5.22;;;2.83;;
80481;SDS011;69797;43.864;21.410;2023-05-10T02:33:45;6.50;;;3.92;;
80481;SDS011;69797;43.864;21.410;2023-05-10T02:36:13;8.27;;;4.50;;
80481;SDS011;69797;43.864;21.410;2023-05-10T02:38:45;8.17;;;3.97;;
80481;SDS011;69797;43.864;21.410;2023-05-10T02:41:13;6.97;;;4.03;;
80481;SDS011;69797;43.864;21.410;2023-05-10T02:43:41;6.50;;;4.15;;
80481;SDS011;69797;43.864;21.410;2023-05-10T02:46:11;6.07;;;3.72;;
80481;SDS011;69797;43.864;21.410;2023-05-10T02:48:41;6.75;;;4.10;;
80481;SDS011;69797;43.864;21.410;2023-05-10T02:51:08;7.93;;;4.67;;
80481;SDS011;69797;43.864;21.410;2023-05-10T02:53:36;10.15;;;5.50;;
80481;SDS011;69797;43.864;21.410;2023-05-10T02:56:25;5.72;;;3.67;;
80481;SDS011;69797;43.864;21.410;2023-05-10T02:59:00;8.77;;;5.22;;
80481;SDS011;69797;43.864;21.410;2023-05-10T03:01:27;9.13;;;5.22;;
80481;SDS011;69797;43.864;21.410;2023-05-10T03:03:54;6.33;;;3.93;;
80481;SDS011;69797;43.864;21.410;2023-05-10T03:06:23;8.40;;;4.85;;
80481;SDS011;69797;43.864;21.410;2023-05-10T03:08:50;8.70;;;5.03;;
80481;SDS011;69797;43.864;21.410;2023-05-10T03:14:07;6.45;;;4.15;;
80481;SDS011;69797;43.864;21.410;2023-05-10T03:16:46;8.37;;;3.83;;
80481;SDS011;69797;43.864;21.410;2023-05-10T03:19:26;5.45;;;3.83;;
80481;SDS011;69797;43.864;21.410;2023-05-10T03:21:59;7.68;;;4.80;;
80481;SDS011;69797;43.864;21.410;2023-05-10T03:24:29;8.38;;;4.93;;
80481;SDS011;69797;43.864;21.410;2023-05-10T03:26:58;6.47;;;3.83;;
80481;SDS011;69797;43.864;21.410;2023-05-10T03:29:29;7.77;;;4.37;;
80481;SDS011;69797;43.864;21.410;2023-05-10T03:31:57;7.35;;;4.20;;
80481;SDS011;69797;43.864;21.410;2023-05-10T03:34:28;6.45;;;4.55;;
80481;SDS011;69797;43.864;21.410;2023-05-10T03:36:57;6.68;;;4.30;;
80481;SDS011;69797;43.864;21.410;2023-05-10T03:39:24;7.07;;;5.00;;
80481;SDS011;69797;43.864;21.410;2023-05-10T03:41:51;8.83;;;4.97;;
80481;SDS011;69797;43.864;21.410;2023-05-10T03:44:18;9.00;;;4.47;;
80481;SDS011;69797;43.864;21.410;2023-05-10T03:46:44;7.68;;;4.78;;
80481;SDS011;69797;43.864;21.410;2023-05-10T03:49:11;5.78;;;4.00;;
80481;SDS011;69797;43.864;21.410;2023-05-10T03:51:38;7.63;;;5.00;;
80481;SDS011;69797;43.864;21.410;2023-05-10T03:54:05;7.00;;;4.20;;
80481;SDS011;69797;43.864;21.410;2023-05-10T03:56:32;7.57;;;4.43;;
80481;SDS011;69797;43.864;21.410;2023-05-10T03:59:01;4.65;;;3.42;;
80481;SDS011;69797;43.864;21.410;2023-05-10T04:01:27;5.13;;;2.97;;
80481;SDS011;69797;43.864;21.410;2023-05-10T04:03:54;6.45;;;4.15;;
80481;SDS011;69797;43.864;21.410;2023-05-10T04:06:21;6.03;;;3.97;;
80481;SDS011;69797;43.864;21.410;2023-05-10T04:08:48;7.03;;;3.90;;
80481;SDS011;69797;43.864;21.410;2023-05-10T04:11:14;5.03;;;3.22;;
80481;SDS011;69797;43.864;21.410;2023-05-10T04:13:44;7.03;;;4.55;;
80481;SDS011;69797;43.864;21.410;2023-05-10T04:16:13;5.97;;;3.70;;
80481;SDS011;69797;43.864;21.410;2023-05-10T04:18:40;6.00;;;3.87;;
80481;SDS011;69797;43.864;21.410;2023-05-10T04:21:13;6.18;;;4.15;;
80481;SDS011;69797;43.864;21.410;2023-05-10T04:23:40;8.82;;;4.43;;
80481;SDS011;69797;43.864;21.410;2023-05-10T04:26:09;7.35;;;3.38;;
80481;SDS011;69797;43.864;21.410;2023-05-10T04:28:39;6.90;;;3.50;;
80481;SDS011;69797;43.864;21.410;2023-05-10T04:31:09;5.37;;;3.50;;
80481;SDS011;69797;43.864;21.410;2023-05-10T04:33:36;6.03;;;2.97;;
80481;SDS011;69797;43.864;21.410;2023-05-10T04:36:03;5.75;;;3.45;;
80481;SDS011;69797;43.864;21.410;2023-05-10T04:38:30;4.72;;;3.25;;
80481;SDS011;69797;43.864;21.410;2023-05-10T04:41:07;4.95;;;3.45;;
80481;SDS011;69797;43.864;21.410;2023-05-10T04:43:34;5.17;;;2.80;;
80481;SDS011;69797;43.864;21.410;2023-05-10T04:46:03;5.70;;;2.85;;
80481;SDS011;69797;43.864;21.410;2023-05-10T04:48:33;6.72;;;3.92;;
80481;SDS011;69797;43.864;21.410;2023-05-10T04:51:00;4.72;;;3.50;;
80481;SDS011;69797;43.864;21.410;2023-05-10T04:53:27;5.22;;;3.58;;
80481;SDS011;69797;43.864;21.410;2023-05-10T04:55:54;4.33;;;2.77;;
80481;SDS011;69797;43.864;21.410;2023-05-10T04:58:21;5.22;;;3.67;;
80481;SDS011;69797;43.864;21.410;2023-05-10T05:00:47;5.15;;;3.33;;
80481;SDS011;69797;43.864;21.410;2023-05-10T05:03:14;10.40;;;3.95;;
80481;SDS011;69797;43.864;21.410;2023-05-10T05:05:41;4.82;;;3.47;;
80481;SDS011;69797;43.864;21.410;2023-05-10T05:08:08;4.60;;;3.40;;
80481;SDS011;69797;43.864;21.410;2023-05-10T05:10:35;3.55;;;2.70;;
80481;SDS011;69797;43.864;21.410;2023-05-10T05:13:01;5.63;;;3.55;;
80481;SDS011;69797;43.864;21.410;2023-05-10T05:15:28;5.97;;;3.90;;
80481;SDS011;69797;43.864;21.410;2023-05-10T05:17:56;5.50;;;3.42;;
80481;SDS011;69797;43.864;21.410;2023-05-10T05:20:26;5.17;;;3.43;;
80481;SDS011;69797;43.864;21.410;2023-05-10T05:22:55;5.13;;;2.75;;
80481;SDS011;69797;43.864;21.410;2023-05-10T05:25:22;5.03;;;2.75;;
80481;SDS011;69797;43.864;21.410;2023-05-10T05:27:49;5.05;;;3.55;;
80481;SDS011;69797;43.864;21.410;2023-05-10T05:30:16;6.45;;;3.55;;
80481;SDS011;69797;43.864;21.410;2023-05-10T05:32:43;6.90;;;2.93;;
80481;SDS011;69797;43.864;21.410;2023-05-10T05:35:10;5.70;;;3.28;;
80481;SDS011;69797;43.864;21.410;2023-05-10T05:37:37;5.50;;;3.28;;
80481;SDS011;69797;43.864;21.410;2023-05-10T05:40:06;7.00;;;3.28;;
80481;SDS011;69797;43.864;21.410;2023-05-10T05:42:33;4.55;;;3.22;;
80481;SDS011;69797;43.864;21.410;2023-05-10T05:45:00;4.97;;;2.93;;
80481;SDS011;69797;43.864;21.410;2023-05-10T05:47:27;4.65;;;3.28;;
80481;SDS011;69797;43.864;21.410;2023-05-10T05:49:56;4.40;;;2.95;;
80481;SDS011;69797;43.864;21.410;2023-05-10T05:52:22;6.32;;;4.18;;
80481;SDS011;69797;43.864;21.410;2023-05-10T05:54:51;4.70;;;3.00;;
80481;SDS011;69797;43.864;21.410;2023-05-10T05:57:18;5.40;;;3.37;;
80481;SDS011;69797;43.864;21.410;2023-05-10T05:59:45;4.72;;;3.03;;
80481;SDS011;69797;43.864;21.410;2023-05-10T06:02:12;3.78;;;2.28;;
80481;SDS011;69797;43.864;21.410;2023-05-10T06:04:41;8.40;;;3.95;;
80481;SDS011;69797;43.864;21.410;2023-05-10T06:07:10;3.88;;;2.35;;
80481;SDS011;69797;43.864;21.410;2023-05-10T06:09:36;6.13;;;4.00;;
80481;SDS011;69797;43.864;21.410;2023-05-10T06:12:03;5.97;;;3.70;;
80481;SDS011;69797;43.864;21.410;2023-05-10T06:14:32;6.00;;;3.22;;
80481;SDS011;69797;43.864;21.410;2023-05-10T06:16:59;5.72;;;3.47;;
80481;SDS011;69797;43.864;21.410;2023-05-10T06:19:27;7.30;;;3.92;;
80481;SDS011;69797;43.864;21.410;2023-05-10T06:21:54;8.60;;;4.00;;
80481;SDS011;69797;43.864;21.410;2023-05-10T06:24:29;5.70;;;2.72;;
80481;SDS011;69797;43.864;21.410;2023-05-10T06:26:56;7.05;;;2.72;;
80481;SDS011;69797;43.864;21.410;2023-05-10T06:29:26;4.40;;;3.22;;
80481;SDS011;69797;43.864;21.410;2023-05-10T06:31:53;5.35;;;3.40;;
80481;SDS011;69797;43.864;21.410;2023-05-10T06:34:20;6.13;;;4.30;;
80481;SDS011;69797;43.864;21.410;2023-05-10T06:36:47;6.80;;;3.10;;
80481;SDS011;69797;43.864;21.410;2023-05-10T06:39:13;7.88;;;3.67;;
80481;SDS011;69797;43.864;21.410;2023-05-10T06:41:40;5.07;;;3.15;;
80481;SDS011;69797;43.864;21.410;2023-05-10T06:44:07;4.25;;;2.45;;
80481;SDS011;69797;43.864;21.410;2023-05-10T06:46:34;7.00;;;3.00;;
80481;SDS011;69797;43.864;21.410;2023-05-10T06:49:01;5.72;;;3.13;;
80481;SDS011;69797;43.864;21.410;2023-05-10T06:51:28;5.03;;;2.97;;
80481;SDS011;69797;43.864;21.410;2023-05-10T06:53:55;5.25;;;2.95;;
80481;SDS011;69797;43.864;21.410;2023-05-10T06:56:21;4.82;;;2.72;;
80481;SDS011;69797;43.864;21.410;2023-05-10T06:58:51;3.90;;;2.63;;
80481;SDS011;69797;43.864;21.410;2023-05-10T07:01:18;4.82;;;2.83;;
80481;SDS011;69797;43.864;21.410;2023-05-10T07:03:45;5.53;;;2.95;;
80481;SDS011;69797;43.864;21.410;2023-05-10T07:06:11;5.63;;;3.25;;
80481;SDS011;69797;43.864;21.410;2023-05-10T07:08:56;4.35;;;2.70;;
80481;SDS011;69797;43.864;21.410;2023-05-10T07:11:23;3.70;;;2.33;;
80481;SDS011;69797;43.864;21.410;2023-05-10T07:13:50;4.25;;;2.70;;
80481;SDS011;69797;43.864;21.410;2023-05-10T07:16:16;5.85;;;2.70;;
80481;SDS011;69797;43.864;21.410;2023-05-10T07:18:43;3.97;;;2.63;;
80481;SDS011;69797;43.864;21.410;2023-05-10T07:21:10;5.43;;;2.92;;
80481;SDS011;69797;43.864;21.410;2023-05-10T07:23:37;8.77;;;3.00;;
80481;SDS011;69797;43.864;21.410;2023-05-10T07:26:04;4.10;;;2.45;;
80481;SDS011;69797;43.864;21.410;2023-05-10T07:28:31;6.25;;;3.28;;
80481;SDS011;69797;43.864;21.410;2023-05-10T07:30:58;5.60;;;3.15;;
80481;SDS011;69797;43.864;21.410;2023-05-10T07:33:25;5.20;;;2.40;;
80481;SDS011;69797;43.864;21.410;2023-05-10T07:35:51;4.73;;;2.00;;
80481;SDS011;69797;43.864;21.410;2023-05-10T07:38:18;8.18;;;2.30;;
80481;SDS011;69797;43.864;21.410;2023-05-10T07:40:45;3.40;;;2.00;;
80481;SDS011;69797;43.864;21.410;2023-05-10T07:43:21;4.95;;;2.63;;
80481;SDS011;69797;43.864;21.410;2023-05-10T07:45:48;3.97;;;2.47;;
80481;SDS011;69797;43.864;21.410;2023-05-10T07:48:15;4.33;;;2.60;;
80481;SDS011;69797;43.864;21.410;2023-05-10T07:50:42;5.47;;;2.72;;
80481;SDS011;69797;43.864;21.410;2023-05-10T07:53:09;7.68;;;3.03;;
80481;SDS011;69797;43.864;21.410;2023-05-10T07:55:36;4.55;;;2.35;;
80481;SDS011;69797;43.864;21.410;2023-05-10T07:58:04;9.95;;;3.88;;
80481;SDS011;69797;43.864;21.410;2023-05-10T08:00:34;5.97;;;3.50;;
80481;SDS011;69797;43.864;21.410;2023-05-10T08:03:01;4.25;;;2.78;;
80481;SDS011;69797;43.864;21.410;2023-05-10T08:05:30;5.38;;;3.60;;
80481;SDS011;69797;43.864;21.410;2023-05-10T08:08:00;4.20;;;2.38;;
80481;SDS011;69797;43.864;21.410;2023-05-10T08:10:27;3.85;;;2.65;;
80481;SDS011;69797;43.864;21.410;2023-05-10T08:12:53;6.00;;;2.97;;
80481;SDS011;69797;43.864;21.410;2023-05-10T08:15:20;5.20;;;2.90;;
80481;SDS011;69797;43.864;21.410;2023-05-10T08:17:47;6.60;;;2.40;;
80481;SDS011;69797;43.864;21.410;2023-05-10T08:20:14;6.55;;;3.05;;
80481;SDS011;69797;43.864;21.410;2023-05-10T08:22:44;4.07;;;2.72;;
80481;SDS011;69797;43.864;21.410;2023-05-10T08:25:12;3.93;;;2.50;;
80481;SDS011;69797;43.864;21.410;2023-05-10T08:27:38;5.50;;;2.80;;
80481;SDS011;69797;43.864;21.410;2023-05-10T08:30:09;4.70;;;2.58;;
80481;SDS011;69797;43.864;21.410;2023-05-10T08:32:39;4.28;;;2.67;;
80481;SDS011;69797;43.864;21.410;2023-05-10T08:35:10;9.02;;;3.22;;
80481;SDS011;69797;43.864;21.410;2023-05-10T08:37:37;7.77;;;4.00;;
80481;SDS011;69797;43.864;21.410;2023-05-10T08:40:03;4.93;;;3.17;;
80481;SDS011;69797;43.864;21.410;2023-05-10T08:42:39;5.15;;;2.80;;
80481;SDS011;69797;43.864;21.410;2023-05-10T08:45:08;8.88;;;3.85;;
80481;SDS011;69797;43.864;21.410;2023-05-10T08:47:36;6.25;;;3.33;;
80481;SDS011;69797;43.864;21.410;2023-05-10T08:50:07;8.67;;;4.07;;
80481;SDS011;69797;43.864;21.410;2023-05-10T08:52:35;6.07;;;3.20;;
80481;SDS011;69797;43.864;21.410;2023-05-10T08:55:08;4.53;;;3.08;;
80481;SDS011;69797;43.864;21.410;2023-05-10T08:57:36;5.80;;;3.00;;
80481;SDS011;69797;43.864;21.410;2023-05-10T09:00:03;5.10;;;2.90;;
80481;SDS011;69797;43.864;21.410;2023-05-10T09:02:32;5.07;;;3.60;;
80481;SDS011;69797;43.864;21.410;2023-05-10T09:04:59;9.32;;;4.03;;
80481;SDS011;69797;43.864;21.410;2023-05-10T09:07:30;5.80;;;4.10;;
80481;SDS011;69797;43.864;21.410;2023-05-10T09:10:02;8.68;;;5.20;;
80481;SDS011;69797;43.864;21.410;2023-05-10T09:12:30;8.85;;;3.85;;
80481;SDS011;69797;43.864;21.410;2023-05-10T09:14:57;6.90;;;4.27;;
80481;SDS011;69797;43.864;21.410;2023-05-10T09:17:29;5.50;;;3.58;;
80481;SDS011;69797;43.864;21.410;2023-05-10T09:19:59;6.93;;;3.53;;
80481;SDS011;69797;43.864;21.410;2023-05-10T09:22:26;4.95;;;3.10;;
80481;SDS011;69797;43.864;21.410;2023-05-10T09:25:04;5.55;;;3.28;;
80481;SDS011;69797;43.864;21.410;2023-05-10T09:27:31;4.77;;;3.30;;
80481;SDS011;69797;43.864;21.410;2023-05-10T09:29:58;10.60;;;4.38;;
80481;SDS011;69797;43.864;21.410;2023-05-10T09:32:35;5.63;;;3.70;;
80481;SDS011;69797;43.864;21.410;2023-05-10T09:35:07;4.72;;;3.08;;
80481;SDS011;69797;43.864;21.410;2023-05-10T09:37:34;6.72;;;3.47;;
80481;SDS011;69797;43.864;21.410;2023-05-10T09:40:04;4.80;;;3.07;;
80481;SDS011;69797;43.864;21.410;2023-05-10T09:42:34;7.20;;;3.88;;
80481;SDS011;69797;43.864;21.410;2023-05-10T09:45:02;6.13;;;3.58;;
80481;SDS011;69797;43.864;21.410;2023-05-10T09:47:33;5.30;;;3.75;;
80481;SDS011;69797;43.864;21.410;2023-05-10T09:50:06;3.40;;;2.13;;
80481;SDS011;69797;43.864;21.410;2023-05-10T09:55:23;3.45;;;2.33;;
80481;SDS011;69797;43.864;21.410;2023-05-10T09:57:59;5.55;;;3.20;;
80481;SDS011;69797;43.864;21.410;2023-05-10T10:00:27;4.38;;;3.00;;
80481;SDS011;69797;43.864;21.410;2023-05-10T10:02:57;4.18;;;2.85;;
80481;SDS011;69797;43.864;21.410;2023-05-10T10:05:33;3.80;;;2.73;;
80481;SDS011;69797;43.864;21.410;2023-05-10T10:08:04;4.32;;;2.75;;
80481;SDS011;69797;43.864;21.410;2023-05-10T10:10:34;6.65;;;2.70;;
80481;SDS011;69797;43.864;21.410;2023-05-10T10:13:01;4.22;;;2.78;;
80481;SDS011;69797;43.864;21.410;2023-05-10T10:15:28;4.85;;;3.20;;
80481;SDS011;69797;43.864;21.410;2023-05-10T10:17:55;4.77;;;3.20;;
80481;SDS011;69797;43.864;21.410;2023-05-10T10:20:22;4.65;;;3.08;;
80481;SDS011;69797;43.864;21.410;2023-05-10T10:22:51;5.22;;;3.05;;
80481;SDS011;69797;43.864;21.410;2023-05-10T10:25:21;3.65;;;2.53;;
80481;SDS011;69797;43.864;21.410;2023-05-10T10:30:25;5.70;;;2.47;;
80481;SDS011;69797;43.864;21.410;2023-05-10T10:33:18;3.83;;;2.47;;
80481;SDS011;69797;43.864;21.410;2023-05-10T10:36:02;6.47;;;3.30;;
80481;SDS011;69797;43.864;21.410;2023-05-10T10:39:07;4.63;;;3.30;;
80481;SDS011;69797;43.864;21.410;2023-05-10T10:41:31;6.10;;;3.10;;
80481;SDS011;69797;43.864;21.410;2023-05-10T10:49:42;4.35;;;3.10;;
80481;SDS011;69797;43.864;21.410;2023-05-10T10:57:56;4.33;;;2.90;;
80481;SDS011;69797;43.864;21.410;2023-05-10T11:00:39;4.57;;;2.97;;
80481;SDS011;69797;43.864;21.410;2023-05-10T11:03:10;5.68;;;3.58;;
80481;SDS011;69797;43.864;21.410;2023-05-10T11:05:45;5.43;;;2.67;;
80481;SDS011;69797;43.864;21.410;2023-05-10T11:08:16;4.65;;;3.13;;
80481;SDS011;69797;43.864;21.410;2023-05-10T11:16:10;4.90;;;3.33;;
80481;SDS011;69797;43.864;21.410;2023-05-10T11:18:37;7.03;;;3.35;;
80481;SDS011;69797;43.864;21.410;2023-05-10T11:21:04;4.72;;;3.72;;
80481;SDS011;69797;43.864;21.410;2023-05-10T11:26:10;4.43;;;2.85;;
80481;SDS011;69797;43.864;21.410;2023-05-10T11:28:45;4.05;;;2.97;;
80481;SDS011;69797;43.864;21.410;2023-05-10T11:31:16;4.28;;;2.78;;
80481;SDS011;69797;43.864;21.410;2023-05-10T11:33:49;4.20;;;2.35;;
80481;SDS011;69797;43.864;21.410;2023-05-10T11:36:18;7.00;;;3.60;;
80481;SDS011;69797;43.864;21.410;2023-05-10T11:38:47;3.60;;;2.47;;
80481;SDS011;69797;43.864;21.410;2023-05-10T11:41:15;5.18;;;3.13;;
80481;SDS011;69797;43.864;21.410;2023-05-10T11:43:45;5.80;;;3.10;;
80481;SDS011;69797;43.864;21.410;2023-05-10T11:46:14;4.40;;;3.10;;
80481;SDS011;69797;43.864;21.410;2023-05-10T11:48:41;4.93;;;3.00;;
80481;SDS011;69797;43.864;21.410;2023-05-10T11:51:09;4.82;;;2.30;;
80481;SDS011;69797;43.864;21.410;2023-05-10T11:53:37;5.07;;;2.97;;
80481;SDS011;69797;43.864;21.410;2023-05-10T11:56:07;3.15;;;1.95;;
80481;SDS011;69797;43.864;21.410;2023-05-10T11:58:38;4.10;;;2.22;;
80481;SDS011;69797;43.864;21.410;2023-05-10T12:01:06;6.40;;;3.00;;
80481;SDS011;69797;43.864;21.410;2023-05-10T12:03:34;5.00;;;2.80;;
80481;SDS011;69797;43.864;21.410;2023-05-10T12:06:01;4.55;;;3.17;;
80481;SDS011;69797;43.864;21.410;2023-05-10T12:08:29;3.70;;;2.50;;
80481;SDS011;69797;43.864;21.410;2023-05-10T12:11:07;5.05;;;3.72;;
80481;SDS011;69797;43.864;21.410;2023-05-10T12:13:37;5.30;;;3.63;;
80481;SDS011;69797;43.864;21.410;2023-05-10T12:16:15;3.58;;;2.47;;
80481;SDS011;69797;43.864;21.410;2023-05-10T12:18:43;5.97;;;3.72;;
80481;SDS011;69797;43.864;21.410;2023-05-10T12:21:11;4.53;;;2.78;;
80481;SDS011;69797;43.864;21.410;2023-05-10T12:23:41;4.38;;;2.60;;
80481;SDS011;69797;43.864;21.410;2023-05-10T12:26:13;5.07;;;3.50;;
80481;SDS011;69797;43.864;21.410;2023-05-10T12:28:40;4.80;;;2.85;;
80481;SDS011;69797;43.864;21.410;2023-05-10T12:31:07;4.65;;;2.80;;
80481;SDS011;69797;43.864;21.410;2023-05-10T12:33:41;4.50;;;3.10;;
80481;SDS011;69797;43.864;21.410;2023-05-10T12:36:09;6.05;;;3.20;;
80481;SDS011;69797;43.864;21.410;2023-05-10T12:38:38;4.80;;;3.17;;
80481;SDS011;69797;43.864;21.410;2023-05-10T12:41:12;6.70;;;3.50;;
80481;SDS011;69797;43.864;21.410;2023-05-10T12:43:41;5.80;;;3.78;;
80481;SDS011;69797;43.864;21.410;2023-05-10T12:46:11;5.70;;;3.40;;
80481;SDS011;69797;43.864;21.410;2023-05-10T12:48:40;5.93;;;4.05;;
80481;SDS011;69797;43.864;21.410;2023-05-10T12:51:08;8.23;;;3.63;;
80481;SDS011;69797;43.864;21.410;2023-05-10T12:53:38;6.85;;;4.35;;
80481;SDS011;69797;43.864;21.410;2023-05-10T12:56:09;4.47;;;2.90;;
80481;SDS011;69797;43.864;21.410;2023-05-10T12:58:36;9.18;;;4.07;;
80481;SDS011;69797;43.864;21.410;2023-05-10T13:01:04;4.90;;;3.55;;
80481;SDS011;69797;43.864;21.410;2023-05-10T13:03:34;5.63;;;3.73;;
80481;SDS011;69797;43.864;21.410;2023-05-10T13:06:01;5.00;;;3.08;;
80481;SDS011;69797;43.864;21.410;2023-05-10T13:08:28;6.35;;;3.80;;
80481;SDS011;69797;43.864;21.410;2023-05-10T13:11:00;5.43;;;3.58;;
80481;SDS011;69797;43.864;21.410;2023-05-10T13:13:29;5.45;;;3.10;;
80481;SDS011;69797;43.864;21.410;2023-05-10T13:15:56;5.07;;;3.40;;
80481;SDS011;69797;43.864;21.410;2023-05-10T13:18:22;7.80;;;4.45;;
80481;SDS011;69797;43.864;21.410;2023-05-10T13:20:50;7.80;;;4.25;;
80481;SDS011;69797;43.864;21.410;2023-05-10T13:23:17;8.93;;;5.40;;
80481;SDS011;69797;43.864;21.410;2023-05-10T13:25:44;8.77;;;5.15;;
80481;SDS011;69797;43.864;21.410;2023-05-10T13:28:11;7.03;;;4.07;;
80481;SDS011;69797;43.864;21.410;2023-05-10T13:30:37;5.38;;;3.67;;
80481;SDS011;69797;43.864;21.410;2023-05-10T13:33:04;6.53;;;4.22;;
80481;SDS011;69797;43.864;21.410;2023-05-10T13:35:31;6.20;;;3.60;;
80481;SDS011;69797;43.864;21.410;2023-05-10T13:37:58;5.15;;;3.63;;
80481;SDS011;69797;43.864;21.410;2023-05-10T13:40:25;6.80;;;3.63;;
80481;SDS011;69797;43.864;21.410;2023-05-10T13:42:51;2.83;;;2.08;;
80481;SDS011;69797;43.864;21.410;2023-05-10T13:45:19;4.40;;;3.13;;
80481;SDS011;69797;43.864;21.410;2023-05-10T13:47:46;5.80;;;3.40;;
80481;SDS011;69797;43.864;21.410;2023-05-10T13:50:13;5.00;;;3.17;;
80481;SDS011;69797;43.864;21.410;2023-05-10T13:52:43;4.10;;;3.03;;
80481;SDS011;69797;43.864;21.410;2023-05-10T13:55:11;4.15;;;2.33;;
80481;SDS011;69797;43.864;21.410;2023-05-10T13:57:45;4.78;;;2.85;;
80481;SDS011;69797;43.864;21.410;2023-05-10T14:00:12;3.13;;;2.15;;
80481;SDS011;69797;43.864;21.410;2023-05-10T14:02:39;6.55;;;2.85;;
80481;SDS011;69797;43.864;21.410;2023-05-10T14:05:09;5.13;;;2.90;;
80481;SDS011;69797;43.864;21.410;2023-05-10T14:07:36;7.60;;;2.80;;
80481;SDS011;69797;43.864;21.410;2023-05-10T14:10:03;5.80;;;3.08;;
80481;SDS011;69797;43.864;21.410;2023-05-10T14:12:30;6.57;;;3.15;;
80481;SDS011;69797;43.864;21.410;2023-05-10T14:14:59;3.53;;;2.58;;
80481;SDS011;69797;43.864;21.410;2023-05-10T14:17:26;3.93;;;2.40;;
80481;SDS011;69797;43.864;21.410;2023-05-10T14:19:53;4.18;;;2.63;;
80481;SDS011;69797;43.864;21.410;2023-05-10T14:22:20;3.75;;;2.70;;
80481;SDS011;69797;43.864;21.410;2023-05-10T14:24:47;3.45;;;2.35;;
80481;SDS011;69797;43.864;21.410;2023-05-10T14:27:14;3.20;;;2.58;;
80481;SDS011;69797;43.864;21.410;2023-05-10T14:29:41;4.30;;;2.73;;
80481;SDS011;69797;43.864;21.410;2023-05-10T14:32:08;3.80;;;2.83;;
80481;SDS011;69797;43.864;21.410;2023-05-10T14:34:35;4.05;;;2.95;;
80481;SDS011;69797;43.864;21.410;2023-05-10T14:37:02;5.82;;;2.88;;
80481;SDS011;69797;43.864;21.410;2023-05-10T14:39:28;6.25;;;3.00;;
80481;SDS011;69797;43.864;21.410;2023-05-10T14:41:56;6.33;;;3.57;;
80481;SDS011;69797;43.864;21.410;2023-05-10T14:44:23;4.50;;;3.45;;
80481;SDS011;69797;43.864;21.410;2023-05-10T14:46:50;6.07;;;3.25;;
80481;SDS011;69797;43.864;21.410;2023-05-10T14:49:17;5.22;;;3.40;;
80481;SDS011;69797;43.864;21.410;2023-05-10T14:51:48;5.53;;;2.70;;
80481;SDS011;69797;43.864;21.410;2023-05-10T14:54:15;7.03;;;3.10;;
80481;SDS011;69797;43.864;21.410;2023-05-10T14:56:42;6.30;;;3.33;;
80481;SDS011;69797;43.864;21.410;2023-05-10T14:59:09;7.28;;;2.42;;
80481;SDS011;69797;43.864;21.410;2023-05-10T15:01:36;4.05;;;1.95;;
80481;SDS011;69797;43.864;21.410;2023-05-10T15:04:04;4.28;;;1.98;;
80481;SDS011;69797;43.864;21.410;2023-05-10T15:06:32;5.13;;;2.90;;
80481;SDS011;69797;43.864;21.410;2023-05-10T15:09:01;4.90;;;2.20;;
80481;SDS011;69797;43.864;21.410;2023-05-10T15:11:32;6.68;;;3.30;;
80481;SDS011;69797;43.864;21.410;2023-05-10T15:13:59;2.83;;;2.05;;
80481;SDS011;69797;43.864;21.410;2023-05-10T15:16:25;4.78;;;2.50;;
80481;SDS011;69797;43.864;21.410;2023-05-10T15:18:52;4.27;;;3.00;;
80481;SDS011;69797;43.864;21.410;2023-05-10T15:21:19;3.92;;;2.22;;
80481;SDS011;69797;43.864;21.410;2023-05-10T15:23:46;6.40;;;3.20;;
80481;SDS011;69797;43.864;21.410;2023-05-10T15:26:13;4.80;;;2.70;;